Time;durP1;ratioP1;P1;durP2;ratioP2;P2;SDS_P1;SDS_P2;PMS_P1;PMS_P2;Temp;Humidity;BMP_temperature;BMP_pressure;BME280_temperature;BME280_humidity;BME280_pressure;Samples;Min_cycle;Max_cycle;Signal;HPM_P1;HPM_P2
2022/01/17 00:01:57;;;;;;;16.02;13.15;;;9.90;99.90;;;;;;5094789;28;20506;-71
2022/01/17 00:04:24;;;;;;;16.83;12.30;;;9.80;99.90;;;;;;5093025;28;20370;-70
2022/01/17 00:06:52;;;;;;;15.98;11.18;;;9.70;99.90;;;;;;5112467;28;20036;-71
2022/01/17 00:09:22;;;;;;;16.98;12.23;;;9.60;99.90;;;;;;5092874;28;20397;-71
2022/01/17 00:11:50;;;;;;;21.33;14.20;;;9.60;99.90;;;;;;5077465;28;20035;-71
2022/01/17 00:14:22;;;;;;;15.85;11.38;;;9.60;99.90;;;;;;5115395;28;20052;-71
2022/01/17 00:17:05;;;;;;;18.38;13.48;;;9.50;99.90;;;;;;5111670;28;20509;-70
2022/01/17 00:19:40;;;;;;;18.92;11.20;;;9.50;99.90;;;;;;5092613;28;20039;-71
2022/01/17 00:22:08;;;;;;;17.63;12.50;;;9.50;99.90;;;;;;5112607;28;20092;-71
2022/01/17 00:24:35;;;;;;;14.75;12.32;;;9.40;99.90;;;;;;5109335;28;20035;-71
2022/01/17 00:27:03;;;;;;;18.80;12.27;;;9.50;99.90;;;;;;5094555;28;20058;-71
2022/01/17 00:29:32;;;;;;;21.52;13.23;;;9.50;99.90;;;;;;5069743;28;20470;-71
2022/01/17 00:32:01;;;;;;;23.80;14.60;;;9.50;99.90;;;;;;5097046;28;20131;-70
2022/01/17 00:34:28;;;;;;;25.48;13.77;;;9.40;99.90;;;;;;5093694;28;20126;-71
2022/01/17 00:36:56;;;;;;;20.55;14.23;;;9.40;99.90;;;;;;5098694;28;20035;-71
2022/01/17 00:39:24;;;;;;;19.88;13.57;;;9.30;99.90;;;;;;5096639;28;20465;-70
2022/01/17 00:41:52;;;;;;;16.45;13.02;;;9.20;99.90;;;;;;5112459;28;20409;-71
2022/01/17 00:44:21;;;;;;;22.17;13.25;;;9.20;99.90;;;;;;5085569;28;20122;-70
2022/01/17 00:46:51;;;;;;;19.13;14.73;;;9.20;99.90;;;;;;5114021;27;20088;-71
2022/01/17 00:49:19;;;;;;;19.02;13.98;;;9.20;99.90;;;;;;5103294;28;20401;-71
2022/01/17 00:51:47;;;;;;;26.00;15.30;;;9.20;99.90;;;;;;5116993;27;20406;-71
2022/01/17 00:54:15;;;;;;;18.13;12.85;;;9.10;99.90;;;;;;5104349;28;20047;-70
2022/01/17 00:56:42;;;;;;;19.90;13.65;;;9.10;99.90;;;;;;5097032;28;20036;-70
2022/01/17 00:59:10;;;;;;;19.02;13.07;;;9.10;99.90;;;;;;5112991;28;20092;-70
2022/01/17 01:01:38;;;;;;;20.45;15.48;;;8.90;99.90;;;;;;5092658;28;20048;-70
2022/01/17 01:04:05;;;;;;;25.83;15.77;;;8.80;99.90;;;;;;5093822;28;20078;-70
2022/01/17 01:06:36;;;;;;;29.23;16.50;;;8.80;99.90;;;;;;5115412;28;20035;-70
2022/01/17 01:09:03;;;;;;;24.73;16.00;;;8.70;99.90;;;;;;5095031;28;20051;-70
2022/01/17 01:11:31;;;;;;;33.60;18.27;;;8.80;99.90;;;;;;5115392;28;20500;-71
2022/01/17 01:14:01;;;;;;;24.75;15.70;;;8.80;99.90;;;;;;5079882;28;20077;-70
2022/01/17 01:16:34;;;;;;;24.55;17.50;;;8.80;99.90;;;;;;5098398;27;20058;-71
2022/01/17 01:22:01;;;;;;;25.45;18.00;;;8.80;99.90;;;;;;5113215;28;20036;-72
2022/01/17 01:30:02;;;;;;;21.23;17.40;;;8.80;99.90;;;;;;5095647;28;20040;-71
2022/01/17 01:32:38;;;;;;;24.17;18.38;;;8.80;99.90;;;;;;5103633;27;20043;-72
2022/01/17 01:35:10;;;;;;;;;;;8.90;99.90;;;;;;5110209;28;20059;-71
2022/01/17 01:37:37;;;;;;;22.70;17.42;;;8.80;99.90;;;;;;5096373;28;20010;-70
2022/01/17 01:40:06;;;;;;;22.80;17.92;;;8.90;99.90;;;;;;5095325;28;20063;-72
2022/01/17 01:42:33;;;;;;;29.42;18.63;;;8.80;99.90;;;;;;5116627;27;20035;-72
2022/01/17 01:45:02;;;;;;;21.88;16.17;;;8.70;99.90;;;;;;5105066;28;20097;-72
2022/01/17 01:47:29;;;;;;;26.92;16.08;;;8.60;99.90;;;;;;5095323;28;20044;-70
2022/01/17 01:49:57;;;;;;;22.30;14.65;;;8.60;99.90;;;;;;5096113;28;20043;-72
2022/01/17 01:52:25;;;;;;;23.33;14.73;;;8.60;99.90;;;;;;5096185;28;20100;-71
2022/01/17 01:54:52;;;;;;;23.55;15.40;;;8.60;99.90;;;;;;5079434;28;20509;-72
2022/01/17 01:57:20;;;;;;;19.58;13.82;;;8.70;99.90;;;;;;5114258;28;20468;-72
2022/01/17 01:59:47;;;;;;;24.73;14.70;;;8.80;99.90;;;;;;5097168;28;20050;-72
2022/01/17 02:02:15;;;;;;;23.65;15.70;;;8.80;99.90;;;;;;5063655;28;20087;-72
2022/01/17 02:04:43;;;;;;;21.95;15.43;;;8.80;99.90;;;;;;5115432;28;20131;-72
2022/01/17 02:07:11;;;;;;;21.33;15.63;;;8.90;99.90;;;;;;5115311;28;20039;-72
2022/01/17 02:09:39;;;;;;;24.50;15.73;;;8.90;99.90;;;;;;5080363;28;20040;-72
2022/01/17 02:12:08;;;;;;;23.70;16.05;;;9.00;99.90;;;;;;5115185;28;20396;-72
2022/01/17 02:14:35;;;;;;;20.92;14.82;;;9.00;99.90;;;;;;5097003;28;20036;-71
2022/01/17 02:17:05;;;;;;;18.65;14.35;;;9.00;99.90;;;;;;5095966;28;20051;-72
2022/01/17 02:19:34;;;;;;;24.23;17.35;;;9.00;99.90;;;;;;5114963;28;20063;-72
2022/01/17 02:22:02;;;;;;;26.17;16.80;;;9.00;99.90;;;;;;5115086;28;20051;-71
2022/01/17 02:24:30;;;;;;;26.65;17.88;;;9.00;99.90;;;;;;5096575;28;20120;-72
2022/01/17 02:26:58;;;;;;;23.65;15.65;;;8.90;99.90;;;;;;5114740;28;20126;-72
2022/01/17 02:29:26;;;;;;;21.08;16.25;;;8.90;99.90;;;;;;5114620;28;20439;-72
2022/01/17 02:31:54;;;;;;;26.20;17.05;;;8.90;99.90;;;;;;5114695;28;20122;-72
2022/01/17 02:34:21;;;;;;;20.88;16.90;;;8.90;99.90;;;;;;5114780;28;20461;-72
2022/01/17 02:36:49;;;;;;;22.58;17.23;;;8.90;99.90;;;;;;5114599;28;20055;-72
2022/01/17 02:39:17;;;;;;;21.58;16.02;;;8.80;99.90;;;;;;5096622;28;20486;-71
2022/01/17 02:41:48;;;;;;;22.60;16.35;;;8.80;99.90;;;;;;5114513;28;20050;-72
2022/01/17 02:44:16;;;;;;;22.33;16.73;;;8.80;99.90;;;;;;5114463;28;20040;-72
2022/01/17 02:46:44;;;;;;;22.30;15.77;;;8.80;99.90;;;;;;5080055;28;20359;-72
2022/01/17 02:49:12;;;;;;;22.90;16.48;;;8.70;99.90;;;;;;5096529;28;20561;-72
2022/01/17 02:51:40;;;;;;;21.67;16.45;;;8.70;99.90;;;;;;5114134;28;20427;-72
2022/01/17 02:54:07;;;;;;;22.65;16.85;;;8.60;99.90;;;;;;5113742;28;20387;-72
2022/01/17 02:56:35;;;;;;;25.88;17.42;;;8.50;99.90;;;;;;5095252;28;20094;-72
2022/01/17 02:59:02;;;;;;;22.90;15.95;;;8.40;99.90;;;;;;5113292;28;20117;-72
2022/01/17 03:01:30;;;;;;;22.63;15.43;;;8.40;99.90;;;;;;5095643;28;20036;-71
2022/01/17 03:03:58;;;;;;;19.88;13.35;;;8.40;99.90;;;;;;5094634;28;20044;-72
2022/01/17 03:06:28;;;;;;;21.58;15.77;;;8.40;99.90;;;;;;5061823;28;20138;-72
2022/01/17 03:08:55;;;;;;;22.25;15.90;;;8.40;99.90;;;;;;5060944;28;20138;-72
2022/01/17 03:11:25;;;;;;;26.00;16.95;;;8.40;99.90;;;;;;5095267;28;20043;-71
2022/01/17 03:13:53;;;;;;;18.70;13.45;;;8.50;99.90;;;;;;5113918;28;20035;-71
2022/01/17 03:16:32;;;;;;;17.95;13.07;;;8.50;99.90;;;;;;5078299;28;20043;-71
2022/01/17 03:19:00;;;;;;;17.08;13.80;;;8.50;99.90;;;;;;5095298;28;20134;-71
2022/01/17 03:21:28;;;;;;;18.02;12.30;;;8.40;99.90;;;;;;5095014;28;20035;-71
2022/01/17 03:23:56;;;;;;;18.05;13.35;;;8.40;99.90;;;;;;5095102;28;20050;-72
2022/01/17 03:26:25;;;;;;;18.67;14.02;;;8.40;99.90;;;;;;5095102;28;20099;-71
2022/01/17 03:28:52;;;;;;;17.98;13.07;;;8.40;99.90;;;;;;5113185;28;20035;-71
2022/01/17 03:31:20;;;;;;;19.02;13.55;;;8.30;99.90;;;;;;5095252;28;20055;-70
2022/01/17 03:33:47;;;;;;;18.65;13.70;;;8.20;99.90;;;;;;5095554;28;20436;-69
2022/01/17 03:36:15;;;;;;;24.00;15.15;;;8.20;99.90;;;;;;5095458;28;20034;-69
2022/01/17 03:38:42;;;;;;;15.70;12.45;;;8.10;99.90;;;;;;5095441;28;20047;-70
2022/01/17 03:41:13;;;;;;;22.85;13.40;;;8.10;99.90;;;;;;5095774;28;20075;-69
2022/01/17 03:43:40;;;;;;;17.65;12.20;;;8.10;99.90;;;;;;5113639;28;20048;-70
2022/01/17 03:46:08;;;;;;;15.55;11.63;;;8.20;99.90;;;;;;5078248;28;20408;-70
2022/01/17 03:48:36;;;;;;;17.27;12.80;;;8.30;99.90;;;;;;5078469;28;20044;-71
2022/01/17 03:51:03;;;;;;;16.85;12.25;;;8.40;99.90;;;;;;5095442;28;20040;-71
2022/01/17 03:53:31;;;;;;;14.10;9.95;;;8.50;99.90;;;;;;5079035;28;20367;-71
2022/01/17 03:55:59;;;;;;;15.60;11.02;;;8.50;99.90;;;;;;5113810;28;20127;-71
2022/01/17 03:58:27;;;;;;;13.05;9.98;;;8.50;99.90;;;;;;5095836;28;20143;-71
2022/01/17 04:00:58;;;;;;;14.63;10.43;;;8.50;99.90;;;;;;5095425;28;20126;-71
2022/01/17 04:03:26;;;;;;;15.95;11.30;;;8.50;99.90;;;;;;5113792;28;20052;-71
2022/01/17 04:05:55;;;;;;;14.35;10.48;;;8.60;99.90;;;;;;5095689;28;20059;-71
2022/01/17 04:08:22;;;;;;;16.33;12.30;;;8.70;99.90;;;;;;5095582;28;20067;-71
2022/01/17 04:10:50;;;;;;;20.08;13.75;;;8.80;99.90;;;;;;5113613;28;20052;-72
2022/01/17 04:13:18;;;;;;;16.95;10.48;;;8.80;99.90;;;;;;5095610;28;20050;-71
2022/01/17 04:15:46;;;;;;;13.90;9.60;;;8.70;99.90;;;;;;5095980;28;20048;-71
2022/01/17 04:18:14;;;;;;;12.20;9.38;;;8.70;99.90;;;;;;5095593;28;20044;-71
2022/01/17 04:20:43;;;;;;;13.70;9.60;;;8.50;99.90;;;;;;5114241;28;20098;-71
2022/01/17 04:23:12;;;;;;;14.98;9.98;;;8.50;99.90;;;;;;5117472;28;20109;-71
2022/01/17 04:25:42;;;;;;;10.07;8.10;;;8.40;99.90;;;;;;5117510;28;20050;-71
2022/01/17 04:28:12;;;;;;;12.68;9.18;;;8.30;99.90;;;;;;5099255;28;20496;-71
2022/01/17 04:30:41;;;;;;;13.05;8.65;;;8.30;99.90;;;;;;5082272;28;20039;-71
2022/01/17 04:33:09;;;;;;;14.00;9.68;;;8.20;99.90;;;;;;5099043;28;20036;-71
2022/01/17 04:35:37;;;;;;;11.20;8.10;;;8.30;99.90;;;;;;5099260;28;20039;-71
2022/01/17 04:38:07;;;;;;;11.18;7.85;;;8.20;99.90;;;;;;5099142;28;20035;-71
2022/01/17 04:40:37;;;;;;;11.70;7.75;;;8.30;99.90;;;;;;5117225;28;20470;-70
2022/01/17 04:43:18;;;;;;;12.90;7.43;;;8.30;99.90;;;;;;5117213;28;20062;-70
2022/01/17 04:45:47;;;;;;;12.40;8.20;;;8.30;99.90;;;;;;5098862;28;20092;-71
2022/01/17 04:48:15;;;;;;;11.60;8.30;;;8.30;99.90;;;;;;5082378;28;20453;-71
2022/01/17 04:50:43;;;;;;;11.48;8.38;;;8.20;99.90;;;;;;5099080;28;20130;-71
2022/01/17 04:53:16;;;;;;;13.52;7.85;;;8.20;99.90;;;;;;5116824;28;20446;-71
2022/01/17 04:55:44;;;;;;;8.20;6.85;;;8.20;99.90;;;;;;5099108;28;20039;-71
2022/01/17 04:58:12;;;;;;;13.50;8.20;;;8.20;99.90;;;;;;5098715;28;20059;-71
2022/01/17 05:00:46;;;;;;;14.00;8.02;;;8.30;99.90;;;;;;5116620;28;20044;-71
2022/01/17 05:03:19;;;;;;;13.65;8.68;;;8.30;99.90;;;;;;5117217;28;20055;-71
2022/01/17 05:05:49;;;;;;;10.88;8.27;;;8.30;99.90;;;;;;5116914;28;20051;-71
2022/01/17 05:08:17;;;;;;;8.88;6.70;;;8.30;99.90;;;;;;5081281;28;20466;-70
2022/01/17 05:10:50;;;;;;;10.68;7.03;;;8.40;99.90;;;;;;5116706;28;20067;-71
2022/01/17 05:13:22;;;;;;;12.38;8.75;;;8.40;99.90;;;;;;5116427;28;20126;-71
2022/01/17 05:16:13;;;;;;;9.93;7.32;;;8.50;99.90;;;;;;5116572;28;20036;-71
2022/01/17 05:21:08;;;;;;;10.23;7.95;;;8.70;99.90;;;;;;5116462;28;20390;-71
2022/01/17 05:23:36;;;;;;;12.20;7.93;;;8.70;99.90;;;;;;5106014;28;20047;-71
2022/01/17 05:26:03;;;;;;;10.13;6.65;;;8.70;99.90;;;;;;5110734;28;20035;-71
2022/01/17 05:28:31;;;;;;;14.73;7.07;;;8.70;99.90;;;;;;5075947;28;20075;-70
2022/01/17 05:30:58;;;;;;;9.57;7.03;;;8.80;99.90;;;;;;5095627;28;20451;-71
2022/01/17 05:33:26;;;;;;;13.23;7.55;;;8.80;99.90;;;;;;5094287;28;20457;-70
2022/01/17 05:35:53;;;;;;;9.85;6.88;;;8.80;99.90;;;;;;5091695;28;20050;-71
2022/01/17 05:38:21;;;;;;;10.70;7.82;;;8.80;99.90;;;;;;5094856;28;20039;-71
2022/01/17 05:40:48;;;;;;;10.68;7.18;;;8.80;99.90;;;;;;5114549;28;20052;-71
2022/01/17 05:43:16;;;;;;;9.70;6.47;;;8.80;99.90;;;;;;5124069;27;20122;-71
2022/01/17 05:45:43;;;;;;;10.05;7.28;;;8.80;99.90;;;;;;5114534;27;20405;-71
2022/01/17 05:48:11;;;;;;;11.80;8.07;;;8.80;99.90;;;;;;5102305;28;20093;-71
2022/01/17 05:50:38;;;;;;;10.18;7.70;;;8.80;99.90;;;;;;5073435;28;20123;-70
2022/01/17 05:53:06;;;;;;;11.32;7.05;;;8.80;99.90;;;;;;5074484;28;20528;-71
2022/01/17 05:55:33;;;;;;;8.82;5.90;;;8.70;99.90;;;;;;5112683;28;20035;-71
2022/01/17 05:58:02;;;;;;;13.55;6.82;;;8.70;99.90;;;;;;5097069;28;20055;-68
2022/01/17 06:00:30;;;;;;;9.75;6.47;;;8.70;99.90;;;;;;5115652;28;20044;-68
2022/01/17 06:02:57;;;;;;;7.97;6.55;;;8.70;99.90;;;;;;5080117;28;20054;-69
2022/01/17 06:05:25;;;;;;;11.63;6.18;;;8.80;99.90;;;;;;5097301;28;20069;-70
2022/01/17 06:07:53;;;;;;;12.52;8.05;;;8.80;99.90;;;;;;5080959;28;20485;-69
2022/01/17 06:10:20;;;;;;;9.93;7.10;;;9.00;99.90;;;;;;5115580;28;20040;-68
2022/01/17 06:12:48;;;;;;;11.15;7.65;;;9.30;99.90;;;;;;5097073;28;20042;-59
2022/01/17 06:15:18;;;;;;;15.30;8.55;;;9.50;99.90;;;;;;5097335;28;20126;-59
2022/01/17 06:17:46;;;;;;;14.30;9.38;;;9.40;99.90;;;;;;5115154;28;20148;-58
2022/01/17 06:20:14;;;;;;;22.67;12.98;;;9.30;99.90;;;;;;5063875;28;20058;-58
2022/01/17 06:22:41;;;;;;;18.30;10.27;;;9.30;99.90;;;;;;5064068;28;20055;-58
2022/01/17 06:25:09;;;;;;;17.33;10.57;;;9.20;99.90;;;;;;5115158;28;20152;-58
2022/01/17 06:27:37;;;;;;;12.10;7.35;;;9.10;99.90;;;;;;5115040;28;20050;-58
2022/01/17 06:30:13;;;;;;;15.95;10.02;;;9.10;99.90;;;;;;5080569;28;20122;-58
2022/01/17 06:32:41;;;;;;;18.25;11.35;;;9.10;99.90;;;;;;5115014;28;20035;-60
2022/01/17 06:35:11;;;;;;;14.32;8.00;;;9.40;99.90;;;;;;5097047;28;20101;-59
2022/01/17 06:37:39;;;;;;;14.63;8.68;;;9.90;99.90;;;;;;5080150;28;20039;-59
2022/01/17 06:40:08;;;;;;;11.02;7.30;;;10.60;99.90;;;;;;5080004;28;20067;-59
2022/01/17 06:42:35;;;;;;;11.93;8.02;;;11.30;99.90;;;;;;5096767;28;20049;-59
2022/01/17 06:45:05;;;;;;;16.73;9.00;;;12.10;99.90;;;;;;5096142;28;20043;-59
2022/01/17 06:47:34;;;;;;;12.95;8.85;;;12.80;99.90;;;;;;5114554;28;20078;-59
2022/01/17 06:50:04;;;;;;;14.80;10.05;;;13.50;99.90;;;;;;5096697;28;20040;-59
2022/01/17 06:52:32;;;;;;;20.13;10.73;;;14.10;99.90;;;;;;5114617;28;20048;-59
2022/01/17 06:55:02;;;;;;;15.60;10.15;;;14.80;99.90;;;;;;5063886;28;20059;-59
2022/01/17 06:57:30;;;;;;;13.98;8.93;;;15.30;99.90;;;;;;5063239;28;20050;-59
2022/01/17 06:59:58;;;;;;;15.85;8.60;;;15.80;99.90;;;;;;5096331;28;20059;-60
2022/01/17 07:02:25;;;;;;;15.43;10.23;;;16.20;99.60;;;;;;5079400;28;20105;-59
2022/01/17 07:04:53;;;;;;;13.63;8.48;;;16.70;98.70;;;;;;5096678;28;20080;-59
2022/01/17 07:07:21;;;;;;;14.02;9.30;;;17.10;98.00;;;;;;5114283;28;20506;-59
2022/01/17 07:09:49;;;;;;;13.07;8.15;;;17.50;97.20;;;;;;5062725;28;20052;-59
2022/01/17 07:12:17;;;;;;;13.85;7.20;;;17.90;96.60;;;;;;5114378;28;20043;-59
2022/01/17 07:14:44;;;;;;;10.60;7.28;;;18.30;96.10;;;;;;5114258;28;20088;-59
2022/01/17 07:17:12;;;;;;;9.98;7.38;;;18.70;95.10;;;;;;5114331;28;20435;-59
2022/01/17 07:19:39;;;;;;;11.75;6.38;;;19.10;94.40;;;;;;5096068;28;20051;-59
2022/01/17 07:22:08;;;;;;;9.30;6.03;;;19.60;93.60;;;;;;5095975;28;20039;-59
2022/01/17 07:24:39;;;;;;;8.80;5.97;;;20.00;92.90;;;;;;5096843;28;20076;-59
2022/01/17 07:27:06;;;;;;;9.57;5.28;;;20.50;92.30;;;;;;5095939;28;20058;-59
2022/01/17 07:29:34;;;;;;;10.73;6.03;;;20.80;91.60;;;;;;5095985;28;20046;-59
2022/01/17 07:32:02;;;;;;;6.72;5.80;;;21.20;91.00;;;;;;5096192;28;20055;-59
2022/01/17 07:34:30;;;;;;;9.23;6.32;;;21.60;90.60;;;;;;5113933;28;20042;-59
2022/01/17 07:36:59;;;;;;;8.52;6.38;;;21.70;90.20;;;;;;5114047;28;20042;-59
2022/01/17 07:39:27;;;;;;;9.60;6.80;;;21.80;89.80;;;;;;5079410;28;20101;-59
2022/01/17 07:41:55;;;;;;;9.52;6.40;;;21.80;89.70;;;;;;5079241;28;20043;-60
2022/01/17 07:44:25;;;;;;;7.95;7.05;;;21.70;89.90;;;;;;5095744;28;20445;-60
2022/01/17 07:46:57;;;;;;;8.13;5.82;;;21.70;90.00;;;;;;5095945;28;20089;-60
2022/01/17 07:49:26;;;;;;;9.77;5.97;;;21.40;90.10;;;;;;5095809;28;20359;-59
2022/01/17 07:52:01;;;;;;;7.10;6.28;;;21.10;90.50;;;;;;5096028;28;20093;-59
2022/01/17 07:54:37;;;;;;;7.07;6.10;;;20.70;90.90;;;;;;5113808;28;20082;-60
2022/01/17 07:57:05;;;;;;;8.50;6.25;;;20.30;91.20;;;;;;5118103;28;20043;-59
2022/01/17 07:59:32;;;;;;;8.73;6.20;;;19.90;91.70;;;;;;5099876;28;20086;-59
2022/01/17 08:02:00;;;;;;;8.35;6.47;;;19.60;92.10;;;;;;5117759;28;20441;-59
2022/01/17 08:04:29;;;;;;;9.45;6.03;;;19.40;92.40;;;;;;5083189;28;20056;-59
2022/01/17 08:06:57;;;;;;;9.65;5.78;;;19.20;92.70;;;;;;5100091;28;20123;-59
2022/01/17 08:09:30;;;;;;;8.70;6.22;;;19.00;93.00;;;;;;5066301;28;20048;-60
2022/01/17 08:12:04;;;;;;;11.48;6.15;;;18.80;93.00;;;;;;5099618;28;20117;-59
2022/01/17 08:14:32;;;;;;;8.35;6.35;;;18.70;93.20;;;;;;5082398;28;20134;-59
2022/01/17 08:16:59;;;;;;;9.82;7.15;;;18.60;93.40;;;;;;5099913;28;20109;-59
2022/01/17 08:19:27;;;;;;;12.43;8.30;;;18.60;93.40;;;;;;5099770;28;20036;-59
2022/01/17 08:21:59;;;;;;;10.35;8.48;;;18.50;93.40;;;;;;5066304;28;20047;-59
2022/01/17 08:24:27;;;;;;;9.15;7.35;;;18.50;93.50;;;;;;5099661;28;20078;-59
2022/01/17 08:26:56;;;;;;;9.43;7.30;;;18.30;93.70;;;;;;5065825;28;20374;-59
2022/01/17 08:29:28;;;;;;;9.73;7.43;;;18.20;93.80;;;;;;5099353;28;20052;-59
2022/01/17 08:31:58;;;;;;;9.48;7.82;;;18.00;93.90;;;;;;5117562;28;20036;-59
2022/01/17 08:34:26;;;;;;;10.00;7.75;;;17.80;94.10;;;;;;5117065;28;20043;-60
2022/01/17 08:36:53;;;;;;;14.52;7.57;;;17.60;94.30;;;;;;5117338;28;20099;-59
2022/01/17 08:39:21;;;;;;;11.07;7.43;;;17.40;94.60;;;;;;5117145;28;20427;-60
2022/01/17 08:41:49;;;;;;;10.45;7.35;;;17.20;95.00;;;;;;5065698;28;20102;-59
2022/01/17 08:44:19;;;;;;;12.52;7.53;;;17.00;95.10;;;;;;5117307;28;20035;-61
2022/01/17 08:46:47;;;;;;;12.85;8.07;;;16.80;95.30;;;;;;5099215;28;20084;-59
2022/01/17 08:49:16;;;;;;;8.48;6.80;;;16.70;95.30;;;;;;5099063;28;20130;-59
2022/01/17 08:51:46;;;;;;;9.75;6.72;;;16.60;95.40;;;;;;5099317;28;20082;-59
2022/01/17 08:54:14;;;;;;;9.63;7.15;;;16.50;95.50;;;;;;5065311;28;20051;-59
2022/01/17 08:56:41;;;;;;;9.80;6.55;;;16.50;95.20;;;;;;5098882;28;20493;-59
2022/01/17 08:59:09;;;;;;;10.43;7.22;;;16.40;95.30;;;;;;5116790;28;20047;-59
2022/01/17 09:01:37;;;;;;;12.57;7.32;;;16.40;95.50;;;;;;5098689;28;20134;-60
2022/01/17 09:04:05;;;;;;;8.90;6.82;;;16.40;95.30;;;;;;5098834;28;20044;-59
2022/01/17 09:06:33;;;;;;;10.65;7.75;;;16.40;95.10;;;;;;5116112;28;20072;-59
2022/01/17 09:09:00;;;;;;;11.68;7.88;;;16.40;95.20;;;;;;5081726;28;20465;-60
2022/01/17 09:11:29;;;;;;;10.73;8.32;;;16.40;95.10;;;;;;5098241;28;20478;-59
2022/01/17 09:13:56;;;;;;;13.73;7.28;;;16.50;95.00;;;;;;5065087;28;20136;-59
2022/01/17 09:16:24;;;;;;;14.10;9.63;;;16.40;94.70;;;;;;5098217;28;20035;-59
2022/01/17 09:18:52;;;;;;;13.00;8.75;;;16.40;95.10;;;;;;5116617;28;20048;-59
2022/01/17 09:21:19;;;;;;;17.65;10.20;;;16.50;95.20;;;;;;5116334;28;20461;-59
2022/01/17 09:23:48;;;;;;;15.50;8.68;;;16.50;95.20;;;;;;5098820;28;20378;-59
2022/01/17 09:26:16;;;;;;;14.07;9.80;;;16.50;95.30;;;;;;5116291;28;20551;-60
2022/01/17 09:28:45;;;;;;;16.45;11.38;;;16.40;95.20;;;;;;5098496;28;20547;-59
2022/01/17 09:31:12;;;;;;;13.50;9.02;;;16.40;95.10;;;;;;5098045;28;20436;-59
2022/01/17 09:33:40;;;;;;;13.38;9.95;;;16.40;95.50;;;;;;5115704;28;20494;-59
2022/01/17 09:36:07;;;;;;;13.68;9.38;;;16.40;95.00;;;;;;5097694;28;20509;-59
2022/01/17 09:38:35;;;;;;;16.02;9.27;;;16.50;95.00;;;;;;5081150;28;20050;-60
2022/01/17 09:41:04;;;;;;;13.45;9.40;;;16.50;95.10;;;;;;5116079;28;20040;-59
2022/01/17 09:43:40;;;;;;;11.85;9.00;;;16.50;94.90;;;;;;5099041;28;20059;-59
2022/01/17 09:46:09;;;;;;;14.52;8.65;;;16.40;94.80;;;;;;5098088;28;20046;-59
2022/01/17 09:48:39;;;;;;;13.35;9.07;;;16.40;94.80;;;;;;5097782;28;20065;-60
2022/01/17 09:51:20;;;;;;;12.32;8.50;;;16.40;94.70;;;;;;5115914;28;20047;-59
2022/01/17 09:53:52;;;;;;;10.63;8.38;;;16.40;94.60;;;;;;5115635;28;20040;-59
2022/01/17 09:56:23;;;;;;;13.05;9.35;;;16.50;94.80;;;;;;5115513;28;20043;-60
2022/01/17 09:58:52;;;;;;;13.70;9.18;;;16.50;94.70;;;;;;5097523;28;20059;-60
2022/01/17 10:01:19;;;;;;;10.68;8.43;;;16.60;94.60;;;;;;5097585;28;20079;-59
2022/01/17 10:03:47;;;;;;;12.05;9.20;;;16.70;94.60;;;;;;5064384;28;20055;-59
2022/01/17 10:06:15;;;;;;;10.52;8.20;;;16.80;94.40;;;;;;5097263;28;20134;-59
2022/01/17 10:08:43;;;;;;;15.25;10.52;;;16.90;94.50;;;;;;5115460;28;20405;-60
2022/01/17 10:11:16;;;;;;;16.95;11.88;;;17.00;94.40;;;;;;5097878;28;20035;-59
2022/01/17 10:13:47;;;;;;;15.02;10.75;;;17.00;94.30;;;;;;5115394;28;20097;-60
2022/01/17 10:16:20;;;;;;;12.60;8.07;;;17.10;94.30;;;;;;5097447;28;20397;-60
2022/01/17 10:18:54;;;;;;;12.95;9.57;;;17.10;94.20;;;;;;5114257;28;20075;-59
2022/01/17 10:21:28;;;;;;;10.32;8.00;;;17.20;94.30;;;;;;5115443;28;20056;-60
2022/01/17 10:24:40;;;;;;;11.57;7.80;;;17.20;94.30;;;;;;5097401;28;20048;-60
2022/01/17 10:35:38;;;;;;;11.75;6.63;;;17.50;94.30;;;;;;5114845;28;20050;-60
2022/01/17 10:38:08;;;;;;;10.20;7.50;;;17.50;94.00;;;;;;5079799;28;20078;-60
2022/01/17 10:40:44;;;;;;;9.68;6.22;;;17.50;94.10;;;;;;5111543;27;20493;-59
2022/01/17 10:43:27;;;;;;;10.82;6.65;;;17.50;94.30;;;;;;5110215;28;20513;-58
2022/01/17 10:45:57;;;;;;;11.18;7.05;;;17.50;94.20;;;;;;5093062;28;20450;-59
2022/01/17 10:48:30;;;;;;;9.40;6.47;;;17.50;94.10;;;;;;5110054;28;20401;-58
2022/01/17 10:50:58;;;;;;;12.27;7.32;;;17.50;94.20;;;;;;5111289;28;20043;-59
2022/01/17 10:53:26;;;;;;;15.30;7.38;;;17.60;94.10;;;;;;5093290;28;20090;-59
2022/01/17 10:55:56;;;;;;;13.00;7.15;;;17.50;94.00;;;;;;5127023;28;20127;-59
2022/01/17 10:58:28;;;;;;;11.98;7.60;;;17.50;94.20;;;;;;5127012;28;20378;-58
2022/01/17 11:01:04;;;;;;;10.52;6.50;;;17.20;94.30;;;;;;5111124;28;20051;-59
2022/01/17 11:03:34;;;;;;;;;;;16.90;94.40;;;;;;5110320;28;20055;-58
2022/01/17 11:06:09;;;;;;;14.98;9.45;;;16.80;94.90;;;;;;5092710;28;20018;-59
2022/01/17 11:08:39;;;;;;;12.68;8.88;;;16.60;95.10;;;;;;5110681;28;20436;-59
2022/01/17 11:11:08;;;;;;;15.05;8.82;;;16.60;95.30;;;;;;5110988;28;20455;-59
2022/01/17 11:13:39;;;;;;;16.77;9.95;;;16.50;95.50;;;;;;5092641;28;20051;-59
2022/01/17 11:16:11;;;;;;;15.98;10.25;;;16.40;95.80;;;;;;5093011;28;20043;-59
2022/01/17 11:18:45;;;;;;;17.50;11.30;;;16.50;95.60;;;;;;5092465;28;20044;-59
2022/01/17 11:21:16;;;;;;;22.30;10.13;;;16.50;95.80;;;;;;5110908;28;20363;-58
2022/01/17 11:23:47;;;;;;;16.83;11.32;;;16.50;95.60;;;;;;5109496;28;20047;-58
2022/01/17 11:26:16;;;;;;;15.07;10.07;;;16.30;95.40;;;;;;5092741;28;20047;-59
2022/01/17 11:28:44;;;;;;;17.17;10.90;;;16.10;95.70;;;;;;5097797;28;20044;-58
2022/01/17 11:31:15;;;;;;;18.67;11.32;;;15.80;96.20;;;;;;5100016;28;20040;-60
2022/01/17 11:33:48;;;;;;;12.77;8.13;;;15.60;96.70;;;;;;5104449;28;20043;-58
2022/01/17 11:36:16;;;;;;;11.45;7.75;;;15.50;97.20;;;;;;5102576;28;20039;-59
2022/01/17 11:38:49;;;;;;;17.35;8.07;;;15.40;97.70;;;;;;5105144;28;20121;-60
2022/01/17 11:41:29;;;;;;;10.70;7.35;;;15.50;98.10;;;;;;5096245;28;20197;-59
2022/01/17 11:44:02;;;;;;;10.63;7.43;;;15.40;98.30;;;;;;5099035;28;20040;-58
2022/01/17 11:46:37;;;;;;;14.63;8.20;;;15.60;98.30;;;;;;5093419;28;20131;-58
2022/01/17 11:49:08;;;;;;;12.05;7.47;;;15.70;98.10;;;;;;5101278;28;20051;-58
2022/01/17 11:51:47;;;;;;;12.18;8.32;;;15.90;98.00;;;;;;5080126;28;20462;-59
2022/01/17 11:54:22;;;;;;;12.30;8.05;;;16.10;97.70;;;;;;5084035;28;20040;-58
2022/01/17 11:57:06;;;;;;;11.68;7.25;;;16.20;97.40;;;;;;5087089;28;20036;-58
2022/01/17 11:59:42;;;;;;;16.10;7.95;;;16.30;97.20;;;;;;5096211;28;20052;-58
2022/01/17 12:02:20;;;;;;;10.07;6.30;;;16.30;97.00;;;;;;5089763;28;20036;-58
2022/01/17 12:05:06;;;;;;;13.05;7.85;;;16.20;96.80;;;;;;5074762;28;20041;-58
2022/01/17 12:07:40;;;;;;;10.77;6.30;;;16.10;97.00;;;;;;5076514;28;20052;-58
2022/01/17 12:10:16;;;;;;;7.57;6.07;;;16.00;97.20;;;;;;5076127;28;20048;-58
2022/01/17 12:13:06;;;;;;;;;;;15.90;97.50;;;;;;5086123;28;20053;-58
2022/01/17 12:15:54;;;;;;;9.63;6.53;;;15.80;97.60;;;;;;5083358;28;19924;-58
2022/01/17 12:18:30;;;;;;;9.80;5.90;;;15.60;97.70;;;;;;5082213;28;20048;-59
2022/01/17 12:21:36;;;;;;;12.38;5.72;;;15.40;98.10;;;;;;5102379;28;20051;-58
2022/01/17 12:24:30;;;;;;;9.75;6.57;;;15.40;98.20;;;;;;5074507;28;20068;-60
2022/01/17 12:27:00;;;;;;;10.10;7.32;;;15.30;98.40;;;;;;5079238;28;20139;-58
2022/01/17 12:29:52;;;;;;;7.97;5.95;;;15.40;98.60;;;;;;5081020;28;20044;-59
2022/01/17 12:32:26;;;;;;;9.52;5.95;;;15.30;98.70;;;;;;5063672;28;20051;-59
2022/01/17 12:35:11;;;;;;;6.63;4.68;;;15.30;98.50;;;;;;5076047;28;20043;-59
2022/01/17 12:37:49;;;;;;;10.35;4.70;;;15.30;98.60;;;;;;5080693;28;20098;-59
2022/01/17 12:40:32;;;;;;;7.25;4.65;;;15.50;98.40;;;;;;5082867;28;20044;-59
2022/01/17 12:43:07;;;;;;;5.13;3.72;;;15.60;98.10;;;;;;5082207;28;20139;-59
2022/01/17 12:45:41;;;;;;;5.68;4.10;;;15.70;97.70;;;;;;5071080;28;20588;-59
2022/01/17 12:48:15;;;;;;;7.88;5.00;;;15.60;97.70;;;;;;5075988;28;20048;-59
2022/01/17 12:50:46;;;;;;;10.18;5.28;;;15.60;97.60;;;;;;5063872;28;20052;-59
2022/01/17 12:53:17;;;;;;;7.65;4.95;;;15.60;98.00;;;;;;5088198;28;20411;-57
2022/01/17 12:55:51;;;;;;;8.02;5.30;;;15.60;97.70;;;;;;5085235;28;20044;-57
2022/01/17 12:58:33;;;;;;;7.07;4.35;;;15.60;97.50;;;;;;5090438;28;20036;-57
2022/01/17 13:01:05;;;;;;;8.48;4.80;;;15.60;97.40;;;;;;5084076;28;20052;-56
2022/01/17 13:03:35;;;;;;;10.35;5.65;;;15.70;97.90;;;;;;5084777;28;20048;-57
2022/01/17 13:06:06;;;;;;;15.55;4.97;;;16.00;98.40;;;;;;5081648;28;20052;-57
2022/01/17 13:08:34;;;;;;;8.15;4.75;;;16.10;97.40;;;;;;5106844;28;20036;-57
2022/01/17 13:11:22;;;;;;;6.43;4.18;;;16.20;97.00;;;;;;5080536;28;20036;-58
2022/01/17 13:14:01;;;;;;;6.85;4.72;;;16.20;96.60;;;;;;5084466;28;20040;-58
2022/01/17 13:16:34;;;;;;;7.22;4.10;;;16.30;96.40;;;;;;5086580;28;20135;-57